sensor_id;sensor_type;location;lat;lon;timestamp;temperature;humidity
23560;DHT22;11958;50.836;4.438;2022-10-17T00:00:59;14.80;94.50
23560;DHT22;11958;50.836;4.438;2022-10-17T01:51:45;16.10;97.50
23560;DHT22;11958;50.836;4.438;2022-10-17T01:58:02;16.40;97.20
23560;DHT22;11958;50.836;4.438;2022-10-17T02:08:23;16.20;98.60
23560;DHT22;11958;50.836;4.438;2022-10-17T02:11:25;16.20;98.80
23560;DHT22;11958;50.836;4.438;2022-10-17T02:14:20;16.10;99.20
23560;DHT22;11958;50.836;4.438;2022-10-17T02:17:18;16.10;99.00
23560;DHT22;11958;50.836;4.438;2022-10-17T02:23:06;16.30;98.90
23560;DHT22;11958;50.836;4.438;2022-10-17T02:25:44;16.20;99.00
23560;DHT22;11958;50.836;4.438;2022-10-17T02:28:31;16.20;99.00
23560;DHT22;11958;50.836;4.438;2022-10-17T02:31:05;16.30;98.80
23560;DHT22;11958;50.836;4.438;2022-10-17T02:33:46;16.20;98.30
23560;DHT22;11958;50.836;4.438;2022-10-17T02:36:18;16.20;98.60
23560;DHT22;11958;50.836;4.438;2022-10-17T02:38:45;16.20;99.00
23560;DHT22;11958;50.836;4.438;2022-10-17T03:03:28;16.40;99.90
23560;DHT22;11958;50.836;4.438;2022-10-17T03:15:40;16.60;99.10
23560;DHT22;11958;50.836;4.438;2022-10-17T03:18:06;16.50;99.30
23560;DHT22;11958;50.836;4.438;2022-10-17T03:27:21;16.50;99.40
23560;DHT22;11958;50.836;4.438;2022-10-17T03:33:20;16.60;99.00
23560;DHT22;11958;50.836;4.438;2022-10-17T03:35:49;16.60;99.10
23560;DHT22;11958;50.836;4.438;2022-10-17T03:38:15;16.60;99.20
23560;DHT22;11958;50.836;4.438;2022-10-17T03:40:40;16.50;99.60
23560;DHT22;11958;50.836;4.438;2022-10-17T03:43:06;16.60;98.80
23560;DHT22;11958;50.836;4.438;2022-10-17T03:45:31;16.50;99.10
23560;DHT22;11958;50.836;4.438;2022-10-17T03:47:58;16.70;99.20
23560;DHT22;11958;50.836;4.438;2022-10-17T03:50:23;16.60;98.80
23560;DHT22;11958;50.836;4.438;2022-10-17T03:52:49;16.50;99.10
23560;DHT22;11958;50.836;4.438;2022-10-17T03:55:15;16.50;99.20
23560;DHT22;11958;50.836;4.438;2022-10-17T03:57:42;16.50;99.50
23560;DHT22;11958;50.836;4.438;2022-10-17T04:00:08;16.50;99.10
23560;DHT22;11958;50.836;4.438;2022-10-17T04:02:34;16.60;98.80
23560;DHT22;11958;50.836;4.438;2022-10-17T04:05:00;16.50;98.60
23560;DHT22;11958;50.836;4.438;2022-10-17T04:07:25;16.40;98.80
23560;DHT22;11958;50.836;4.438;2022-10-17T04:09:51;16.50;98.90
23560;DHT22;11958;50.836;4.438;2022-10-17T04:12:17;16.50;99.10
23560;DHT22;11958;50.836;4.438;2022-10-17T04:14:42;16.60;98.40
23560;DHT22;11958;50.836;4.438;2022-10-17T04:17:08;16.50;98.70
23560;DHT22;11958;50.836;4.438;2022-10-17T04:19:34;16.50;98.60
23560;DHT22;11958;50.836;4.438;2022-10-17T04:21:59;16.50;98.70
23560;DHT22;11958;50.836;4.438;2022-10-17T04:24:25;16.40;98.60
23560;DHT22;11958;50.836;4.438;2022-10-17T04:26:51;16.40;99.00
23560;DHT22;11958;50.836;4.438;2022-10-17T04:29:16;16.40;99.00
23560;DHT22;11958;50.836;4.438;2022-10-17T04:31:42;16.40;98.90
23560;DHT22;11958;50.836;4.438;2022-10-17T04:34:08;16.40;99.10
23560;DHT22;11958;50.836;4.438;2022-10-17T04:36:33;16.50;98.80
23560;DHT22;11958;50.836;4.438;2022-10-17T04:39:00;16.40;98.90
23560;DHT22;11958;50.836;4.438;2022-10-17T04:41:29;16.40;98.70
23560;DHT22;11958;50.836;4.438;2022-10-17T04:43:55;16.40;98.70
23560;DHT22;11958;50.836;4.438;2022-10-17T04:46:20;16.40;98.80
23560;DHT22;11958;50.836;4.438;2022-10-17T04:48:46;16.50;98.30
23560;DHT22;11958;50.836;4.438;2022-10-17T04:51:15;16.30;98.80
23560;DHT22;11958;50.836;4.438;2022-10-17T04:53:42;16.40;99.00
23560;DHT22;11958;50.836;4.438;2022-10-17T04:56:13;16.70;98.30
23560;DHT22;11958;50.836;4.438;2022-10-17T04:58:40;16.70;97.40
23560;DHT22;11958;50.836;4.438;2022-10-17T05:01:07;16.60;97.30
23560;DHT22;11958;50.836;4.438;2022-10-17T05:03:34;16.60;98.00
23560;DHT22;11958;50.836;4.438;2022-10-17T05:06:18;16.50;98.20
23560;DHT22;11958;50.836;4.438;2022-10-17T05:08:45;16.40;98.30
23560;DHT22;11958;50.836;4.438;2022-10-17T05:11:22;16.40;98.60
23560;DHT22;11958;50.836;4.438;2022-10-17T05:13:52;16.40;98.90
23560;DHT22;11958;50.836;4.438;2022-10-17T05:16:18;16.40;98.90
23560;DHT22;11958;50.836;4.438;2022-10-17T05:18:47;16.40;99.00
23560;DHT22;11958;50.836;4.438;2022-10-17T05:21:13;16.40;99.30
23560;DHT22;11958;50.836;4.438;2022-10-17T05:23:39;16.60;98.90
23560;DHT22;11958;50.836;4.438;2022-10-17T05:26:04;16.50;99.00
23560;DHT22;11958;50.836;4.438;2022-10-17T05:28:30;16.40;99.00
23560;DHT22;11958;50.836;4.438;2022-10-17T05:30:55;16.40;99.20
23560;DHT22;11958;50.836;4.438;2022-10-17T05:33:22;16.50;99.30
23560;DHT22;11958;50.836;4.438;2022-10-17T05:35:48;16.60;98.80
23560;DHT22;11958;50.836;4.438;2022-10-17T05:38:13;16.60;98.40
23560;DHT22;11958;50.836;4.438;2022-10-17T05:40:39;16.60;99.00
23560;DHT22;11958;50.836;4.438;2022-10-17T05:43:04;16.60;98.80
23560;DHT22;11958;50.836;4.438;2022-10-17T08:28:28;17.80;94.90
23560;DHT22;11958;50.836;4.438;2022-10-17T08:31:05;17.60;95.00
23560;DHT22;11958;50.836;4.438;2022-10-17T12:32:12;19.10;90.20
23560;DHT22;11958;50.836;4.438;2022-10-17T12:34:38;19.00;90.60
23560;DHT22;11958;50.836;4.438;2022-10-17T12:37:09;19.00;90.50
23560;DHT22;11958;50.836;4.438;2022-10-17T12:42:01;19.00;90.90
23560;DHT22;11958;50.836;4.438;2022-10-17T12:52:26;19.30;89.70
23560;DHT22;11958;50.836;4.438;2022-10-17T14:41:42;19.30;87.10
23560;DHT22;11958;50.836;4.438;2022-10-17T14:44:51;19.30;87.00
23560;DHT22;11958;50.836;4.438;2022-10-17T14:47:59;19.40;86.70
23560;DHT22;11958;50.836;4.438;2022-10-17T14:51:22;19.90;84.60
23560;DHT22;11958;50.836;4.438;2022-10-17T14:54:25;19.60;86.00
23560;DHT22;11958;50.836;4.438;2022-10-17T14:59:43;19.40;86.50
23560;DHT22;11958;50.836;4.438;2022-10-17T15:02:26;19.40;86.50
23560;DHT22;11958;50.836;4.438;2022-10-17T15:05:21;19.40;86.70
23560;DHT22;11958;50.836;4.438;2022-10-17T15:08:17;19.40;86.50
23560;DHT22;11958;50.836;4.438;2022-10-17T15:11:04;19.40;85.70
23560;DHT22;11958;50.836;4.438;2022-10-17T15:16:50;19.40;85.90
23560;DHT22;11958;50.836;4.438;2022-10-17T15:29:50;19.00;86.40
23560;DHT22;11958;50.836;4.438;2022-10-17T15:46:20;19.00;87.30
23560;DHT22;11958;50.836;4.438;2022-10-17T15:48:47;18.80;87.50
23560;DHT22;11958;50.836;4.438;2022-10-17T15:51:13;18.70;88.20
23560;DHT22;11958;50.836;4.438;2022-10-17T15:53:39;18.80;88.40
23560;DHT22;11958;50.836;4.438;2022-10-17T15:56:05;18.90;87.90
23560;DHT22;11958;50.836;4.438;2022-10-17T15:58:35;18.60;88.20
23560;DHT22;11958;50.836;4.438;2022-10-17T16:01:02;18.60;88.90
23560;DHT22;11958;50.836;4.438;2022-10-17T16:03:28;18.30;89.40
23560;DHT22;11958;50.836;4.438;2022-10-17T17:42:31;17.30;94.80
23560;DHT22;11958;50.836;4.438;2022-10-17T17:48:03;17.20;95.90
23560;DHT22;11958;50.836;4.438;2022-10-17T18:59:59;17.10;93.40
23560;DHT22;11958;50.836;4.438;2022-10-17T19:12:55;17.40;93.20
23560;DHT22;11958;50.836;4.438;2022-10-17T19:24:13;17.20;93.00
23560;DHT22;11958;50.836;4.438;2022-10-17T19:29:50;17.00;93.90
23560;DHT22;11958;50.836;4.438;2022-10-17T19:35:00;17.20;93.90
23560;DHT22;11958;50.836;4.438;2022-10-17T19:37:25;17.30;93.40
23560;DHT22;11958;50.836;4.438;2022-10-17T19:40:02;17.20;92.90
23560;DHT22;11958;50.836;4.438;2022-10-17T19:42:33;17.40;92.90
23560;DHT22;11958;50.836;4.438;2022-10-17T19:44:59;17.30;92.70
23560;DHT22;11958;50.836;4.438;2022-10-17T19:47:25;17.30;92.60
23560;DHT22;11958;50.836;4.438;2022-10-17T19:49:51;17.00;93.20
23560;DHT22;11958;50.836;4.438;2022-10-17T19:52:16;17.00;93.80
23560;DHT22;11958;50.836;4.438;2022-10-17T19:54:42;16.90;94.00
23560;DHT22;11958;50.836;4.438;2022-10-17T19:57:08;16.90;94.40
23560;DHT22;11958;50.836;4.438;2022-10-17T19:59:33;17.00;94.00
23560;DHT22;11958;50.836;4.438;2022-10-17T20:01:59;17.00;93.80
23560;DHT22;11958;50.836;4.438;2022-10-17T20:04:24;17.10;93.20
23560;DHT22;11958;50.836;4.438;2022-10-17T20:06:50;17.20;92.70
23560;DHT22;11958;50.836;4.438;2022-10-17T20:09:16;17.10;93.40
23560;DHT22;11958;50.836;4.438;2022-10-17T20:11:41;17.10;93.30
23560;DHT22;11958;50.836;4.438;2022-10-17T20:14:07;16.90;93.50
23560;DHT22;11958;50.836;4.438;2022-10-17T20:16:34;17.00;94.20
23560;DHT22;11958;50.836;4.438;2022-10-17T20:19:11;17.00;93.70
23560;DHT22;11958;50.836;4.438;2022-10-17T20:21:38;17.00;94.00
23560;DHT22;11958;50.836;4.438;2022-10-17T20:24:19;17.10;93.00
23560;DHT22;11958;50.836;4.438;2022-10-17T20:26:45;17.00;93.80
23560;DHT22;11958;50.836;4.438;2022-10-17T20:29:15;16.80;94.10
23560;DHT22;11958;50.836;4.438;2022-10-17T20:31:50;16.70;94.40
23560;DHT22;11958;50.836;4.438;2022-10-17T20:34:17;16.90;94.40
23560;DHT22;11958;50.836;4.438;2022-10-17T20:55:32;16.90;93.60
23560;DHT22;11958;50.836;4.438;2022-10-17T21:01:08;16.90;94.00
23560;DHT22;11958;50.836;4.438;2022-10-17T21:03:38;16.70;94.10
23560;DHT22;11958;50.836;4.438;2022-10-17T21:06:04;16.70;94.70
23560;DHT22;11958;50.836;4.438;2022-10-17T21:08:39;16.70;94.30
23560;DHT22;11958;50.836;4.438;2022-10-17T21:11:17;16.90;94.10
23560;DHT22;11958;50.836;4.438;2022-10-17T21:13:44;17.10;93.60
23560;DHT22;11958;50.836;4.438;2022-10-17T21:16:12;17.00;93.20
23560;DHT22;11958;50.836;4.438;2022-10-17T21:18:38;16.90;93.70
23560;DHT22;11958;50.836;4.438;2022-10-17T21:21:16;17.00;93.90
23560;DHT22;11958;50.836;4.438;2022-10-17T21:23:45;17.00;93.30
23560;DHT22;11958;50.836;4.438;2022-10-17T21:26:11;16.90;94.00
23560;DHT22;11958;50.836;4.438;2022-10-17T21:28:38;17.00;93.80
23560;DHT22;11958;50.836;4.438;2022-10-17T21:31:22;17.00;93.50
23560;DHT22;11958;50.836;4.438;2022-10-17T21:33:53;17.00;93.40
23560;DHT22;11958;50.836;4.438;2022-10-17T21:36:19;16.90;93.80
23560;DHT22;11958;50.836;4.438;2022-10-17T21:44:50;17.00;93.10
23560;DHT22;11958;50.836;4.438;2022-10-17T21:47:26;17.20;92.40
23560;DHT22;11958;50.836;4.438;2022-10-17T21:53:07;16.90;93.10
23560;DHT22;11958;50.836;4.438;2022-10-17T21:55:35;16.90;93.30
23560;DHT22;11958;50.836;4.438;2022-10-17T21:58:01;16.80;93.40
23560;DHT22;11958;50.836;4.438;2022-10-17T22:00:27;16.70;93.80
23560;DHT22;11958;50.836;4.438;2022-10-17T22:02:53;16.80;93.90
23560;DHT22;11958;50.836;4.438;2022-10-17T22:05:18;16.80;93.80
23560;DHT22;11958;50.836;4.438;2022-10-17T22:07:44;16.80;93.60
23560;DHT22;11958;50.836;4.438;2022-10-17T22:10:09;16.80;93.60
23560;DHT22;11958;50.836;4.438;2022-10-17T22:25:35;16.80;94.10
23560;DHT22;11958;50.836;4.438;2022-10-17T22:28:13;17.00;93.40
23560;DHT22;11958;50.836;4.438;2022-10-17T22:34:31;16.70;93.50
23560;DHT22;11958;50.836;4.438;2022-10-17T22:37:09;16.70;93.70
23560;DHT22;11958;50.836;4.438;2022-10-17T22:39:49;16.60;94.00
23560;DHT22;11958;50.836;4.438;2022-10-17T22:48:51;16.60;94.20
23560;DHT22;11958;50.836;4.438;2022-10-17T22:51:17;16.40;94.40
23560;DHT22;11958;50.836;4.438;2022-10-17T22:54:04;16.50;94.60
23560;DHT22;11958;50.836;4.438;2022-10-17T22:59:44;16.80;93.50
23560;DHT22;11958;50.836;4.438;2022-10-17T23:02:35;16.70;93.60
23560;DHT22;11958;50.836;4.438;2022-10-17T23:05:01;16.60;94.00
23560;DHT22;11958;50.836;4.438;2022-10-17T23:07:27;16.60;93.90
23560;DHT22;11958;50.836;4.438;2022-10-17T23:09:55;16.70;94.10
23560;DHT22;11958;50.836;4.438;2022-10-17T23:12:21;16.60;94.00
23560;DHT22;11958;50.836;4.438;2022-10-17T23:14:46;16.60;93.90
23560;DHT22;11958;50.836;4.438;2022-10-17T23:17:13;16.60;94.20
23560;DHT22;11958;50.836;4.438;2022-10-17T23:19:39;16.70;94.00
23560;DHT22;11958;50.836;4.438;2022-10-17T23:22:06;16.50;94.00
23560;DHT22;11958;50.836;4.438;2022-10-17T23:24:32;16.60;94.50
23560;DHT22;11958;50.836;4.438;2022-10-17T23:26:58;16.50;94.30
23560;DHT22;11958;50.836;4.438;2022-10-17T23:29:24;16.50;94.60
23560;DHT22;11958;50.836;4.438;2022-10-17T23:31:53;16.40;94.50
23560;DHT22;11958;50.836;4.438;2022-10-17T23:34:19;16.50;94.40
23560;DHT22;11958;50.836;4.438;2022-10-17T23:45:32;16.60;93.00
23560;DHT22;11958;50.836;4.438;2022-10-17T23:47:57;16.50;94.30
23560;DHT22;11958;50.836;4.438;2022-10-17T23:50:23;16.60;93.80
23560;DHT22;11958;50.836;4.438;2022-10-17T23:52:48;16.50;94.40
23560;DHT22;11958;50.836;4.438;2022-10-17T23:55:14;16.50;94.50
23560;DHT22;11958;50.836;4.438;2022-10-17T23:57:40;16.50;94.20
